sensor_id;sensor_type;location;lat;lon;timestamp;P1;durP1;ratioP1;P2;durP2;ratioP2
61015;SDS011;46902;52.920;6.536;2022-07-05T00:00:44;4.85;;;2.10;;
61015;SDS011;46902;52.920;6.536;2022-07-05T00:03:10;2.63;;;1.90;;
61015;SDS011;46902;52.920;6.536;2022-07-05T00:05:36;3.13;;;1.98;;
61015;SDS011;46902;52.920;6.536;2022-07-05T00:08:02;3.47;;;1.70;;
61015;SDS011;46902;52.920;6.536;2022-07-05T00:10:29;4.63;;;2.00;;
61015;SDS011;46902;52.920;6.536;2022-07-05T00:12:55;2.75;;;1.80;;
61015;SDS011;46902;52.920;6.536;2022-07-05T00:15:21;4.80;;;2.25;;
61015;SDS011;46902;52.920;6.536;2022-07-05T00:17:47;4.25;;;1.95;;
61015;SDS011;46902;52.920;6.536;2022-07-05T00:20:13;3.20;;;1.88;;
61015;SDS011;46902;52.920;6.536;2022-07-05T00:22:39;2.67;;;1.92;;
61015;SDS011;46902;52.920;6.536;2022-07-05T00:25:04;5.07;;;1.95;;
61015;SDS011;46902;52.920;6.536;2022-07-05T00:27:30;4.30;;;2.22;;
61015;SDS011;46902;52.920;6.536;2022-07-05T00:29:56;4.15;;;2.45;;
61015;SDS011;46902;52.920;6.536;2022-07-05T00:32:21;2.78;;;2.08;;
61015;SDS011;46902;52.920;6.536;2022-07-05T00:34:47;2.72;;;2.20;;
61015;SDS011;46902;52.920;6.536;2022-07-05T00:37:13;4.00;;;2.30;;
61015;SDS011;46902;52.920;6.536;2022-07-05T00:39:38;3.10;;;2.40;;
61015;SDS011;46902;52.920;6.536;2022-07-05T00:42:04;3.58;;;2.33;;
61015;SDS011;46902;52.920;6.536;2022-07-05T00:44:30;9.38;;;2.63;;
61015;SDS011;46902;52.920;6.536;2022-07-05T00:47:01;5.07;;;3.13;;
61015;SDS011;46902;52.920;6.536;2022-07-05T00:49:28;3.95;;;2.20;;
61015;SDS011;46902;52.920;6.536;2022-07-05T00:51:54;5.60;;;2.88;;
61015;SDS011;46902;52.920;6.536;2022-07-05T00:54:20;5.97;;;2.63;;
61015;SDS011;46902;52.920;6.536;2022-07-05T00:56:46;4.38;;;2.95;;
61015;SDS011;46902;52.920;6.536;2022-07-05T00:59:12;5.72;;;3.00;;
61015;SDS011;46902;52.920;6.536;2022-07-05T01:01:38;4.82;;;3.00;;
61015;SDS011;46902;52.920;6.536;2022-07-05T01:04:03;7.32;;;3.40;;
61015;SDS011;46902;52.920;6.536;2022-07-05T01:06:29;5.28;;;3.22;;
61015;SDS011;46902;52.920;6.536;2022-07-05T01:08:54;4.97;;;3.55;;
61015;SDS011;46902;52.920;6.536;2022-07-05T01:11:20;6.85;;;4.03;;
61015;SDS011;46902;52.920;6.536;2022-07-05T01:13:46;8.00;;;5.35;;
61015;SDS011;46902;52.920;6.536;2022-07-05T01:16:12;10.32;;;5.57;;
61015;SDS011;46902;52.920;6.536;2022-07-05T01:18:38;7.00;;;4.80;;
61015;SDS011;46902;52.920;6.536;2022-07-05T01:21:03;5.20;;;3.50;;
61015;SDS011;46902;52.920;6.536;2022-07-05T01:23:30;5.35;;;4.32;;
61015;SDS011;46902;52.920;6.536;2022-07-05T01:25:58;7.00;;;4.43;;
61015;SDS011;46902;52.920;6.536;2022-07-05T01:28:25;7.47;;;4.90;;
61015;SDS011;46902;52.920;6.536;2022-07-05T01:30:51;9.68;;;5.05;;
61015;SDS011;46902;52.920;6.536;2022-07-05T01:33:17;4.95;;;3.92;;
61015;SDS011;46902;52.920;6.536;2022-07-05T01:35:43;9.88;;;4.80;;
61015;SDS011;46902;52.920;6.536;2022-07-05T01:38:10;7.32;;;5.47;;
61015;SDS011;46902;52.920;6.536;2022-07-05T01:40:36;11.15;;;5.72;;
61015;SDS011;46902;52.920;6.536;2022-07-05T01:43:03;11.52;;;6.18;;
61015;SDS011;46902;52.920;6.536;2022-07-05T01:45:29;8.23;;;5.38;;
61015;SDS011;46902;52.920;6.536;2022-07-05T01:48:10;8.63;;;5.80;;
61015;SDS011;46902;52.920;6.536;2022-07-05T01:50:41;6.97;;;4.82;;
61015;SDS011;46902;52.920;6.536;2022-07-05T01:53:17;8.20;;;5.60;;
61015;SDS011;46902;52.920;6.536;2022-07-05T01:55:45;7.63;;;5.05;;
61015;SDS011;46902;52.920;6.536;2022-07-05T01:58:11;6.82;;;4.93;;
61015;SDS011;46902;52.920;6.536;2022-07-05T02:00:47;7.32;;;4.80;;
61015;SDS011;46902;52.920;6.536;2022-07-05T02:03:16;6.55;;;4.82;;
61015;SDS011;46902;52.920;6.536;2022-07-05T02:05:42;11.65;;;5.10;;
61015;SDS011;46902;52.920;6.536;2022-07-05T02:08:09;6.95;;;4.88;;
61015;SDS011;46902;52.920;6.536;2022-07-05T02:10:36;7.25;;;4.93;;
61015;SDS011;46902;52.920;6.536;2022-07-05T02:13:02;6.30;;;4.07;;
61015;SDS011;46902;52.920;6.536;2022-07-05T02:15:30;7.88;;;4.38;;
61015;SDS011;46902;52.920;6.536;2022-07-05T02:17:56;5.28;;;3.55;;
61015;SDS011;46902;52.920;6.536;2022-07-05T02:20:22;5.00;;;4.07;;
61015;SDS011;46902;52.920;6.536;2022-07-05T02:22:47;5.35;;;3.72;;
61015;SDS011;46902;52.920;6.536;2022-07-05T02:25:13;7.05;;;3.97;;
61015;SDS011;46902;52.920;6.536;2022-07-05T02:27:39;5.10;;;3.50;;
61015;SDS011;46902;52.920;6.536;2022-07-05T02:30:04;6.72;;;4.60;;
61015;SDS011;46902;52.920;6.536;2022-07-05T02:32:30;6.65;;;4.28;;
61015;SDS011;46902;52.920;6.536;2022-07-05T02:34:57;7.57;;;5.00;;
61015;SDS011;46902;52.920;6.536;2022-07-05T02:37:23;6.93;;;4.30;;
61015;SDS011;46902;52.920;6.536;2022-07-05T02:39:49;8.88;;;5.40;;
61015;SDS011;46902;52.920;6.536;2022-07-05T02:42:14;6.93;;;4.60;;
61015;SDS011;46902;52.920;6.536;2022-07-05T02:44:40;6.90;;;5.05;;
61015;SDS011;46902;52.920;6.536;2022-07-05T02:47:05;8.98;;;4.65;;
61015;SDS011;46902;52.920;6.536;2022-07-05T02:49:31;6.50;;;3.75;;
61015;SDS011;46902;52.920;6.536;2022-07-05T02:51:57;4.82;;;4.20;;
61015;SDS011;46902;52.920;6.536;2022-07-05T02:54:22;9.00;;;4.43;;
61015;SDS011;46902;52.920;6.536;2022-07-05T02:56:48;7.75;;;5.20;;
61015;SDS011;46902;52.920;6.536;2022-07-05T02:59:14;7.70;;;5.20;;
61015;SDS011;46902;52.920;6.536;2022-07-05T03:01:39;9.00;;;5.00;;
61015;SDS011;46902;52.920;6.536;2022-07-05T03:04:05;5.35;;;4.40;;
61015;SDS011;46902;52.920;6.536;2022-07-05T03:06:31;5.38;;;4.28;;
61015;SDS011;46902;52.920;6.536;2022-07-05T03:08:57;7.88;;;3.97;;
61015;SDS011;46902;52.920;6.536;2022-07-05T03:11:22;6.18;;;3.97;;
61015;SDS011;46902;52.920;6.536;2022-07-05T03:13:48;5.25;;;3.53;;
61015;SDS011;46902;52.920;6.536;2022-07-05T03:16:14;4.22;;;3.53;;
61015;SDS011;46902;52.920;6.536;2022-07-05T03:18:39;5.15;;;3.60;;
61015;SDS011;46902;52.920;6.536;2022-07-05T03:21:05;5.07;;;3.85;;
61015;SDS011;46902;52.920;6.536;2022-07-05T03:23:30;5.78;;;3.50;;
61015;SDS011;46902;52.920;6.536;2022-07-05T03:25:56;6.35;;;4.50;;
61015;SDS011;46902;52.920;6.536;2022-07-05T03:28:22;6.10;;;4.40;;
61015;SDS011;46902;52.920;6.536;2022-07-05T03:30:47;5.97;;;4.40;;
61015;SDS011;46902;52.920;6.536;2022-07-05T03:33:13;6.15;;;4.53;;
61015;SDS011;46902;52.920;6.536;2022-07-05T03:35:38;7.57;;;5.15;;
61015;SDS011;46902;52.920;6.536;2022-07-05T03:38:04;7.43;;;4.60;;
61015;SDS011;46902;52.920;6.536;2022-07-05T03:40:29;5.22;;;3.92;;
61015;SDS011;46902;52.920;6.536;2022-07-05T03:42:55;6.68;;;4.30;;
61015;SDS011;46902;52.920;6.536;2022-07-05T03:45:21;4.70;;;3.83;;
61015;SDS011;46902;52.920;6.536;2022-07-05T03:47:46;5.40;;;4.20;;
61015;SDS011;46902;52.920;6.536;2022-07-05T03:50:12;6.65;;;4.22;;
61015;SDS011;46902;52.920;6.536;2022-07-05T03:52:37;6.68;;;4.30;;
61015;SDS011;46902;52.920;6.536;2022-07-05T03:55:03;5.68;;;4.40;;
61015;SDS011;46902;52.920;6.536;2022-07-05T03:57:29;7.82;;;4.55;;
61015;SDS011;46902;52.920;6.536;2022-07-05T03:59:54;7.72;;;5.03;;
61015;SDS011;46902;52.920;6.536;2022-07-05T04:02:20;7.07;;;5.05;;
61015;SDS011;46902;52.920;6.536;2022-07-05T04:04:46;10.50;;;5.35;;
61015;SDS011;46902;52.920;6.536;2022-07-05T04:07:11;7.88;;;5.53;;
61015;SDS011;46902;52.920;6.536;2022-07-05T04:09:37;8.13;;;5.63;;
61015;SDS011;46902;52.920;6.536;2022-07-05T04:12:02;9.55;;;6.40;;
61015;SDS011;46902;52.920;6.536;2022-07-05T04:14:30;8.93;;;5.70;;
61015;SDS011;46902;52.920;6.536;2022-07-05T04:16:55;7.07;;;5.55;;
61015;SDS011;46902;52.920;6.536;2022-07-05T04:19:21;8.48;;;5.88;;
61015;SDS011;46902;52.920;6.536;2022-07-05T04:21:47;8.57;;;5.90;;
61015;SDS011;46902;52.920;6.536;2022-07-05T04:24:12;7.50;;;5.55;;
61015;SDS011;46902;52.920;6.536;2022-07-05T04:26:38;8.40;;;6.15;;
61015;SDS011;46902;52.920;6.536;2022-07-05T04:29:03;9.65;;;6.60;;
61015;SDS011;46902;52.920;6.536;2022-07-05T04:31:29;8.95;;;6.18;;
61015;SDS011;46902;52.920;6.536;2022-07-05T04:33:55;9.18;;;6.47;;
61015;SDS011;46902;52.920;6.536;2022-07-05T04:36:20;10.07;;;6.70;;
61015;SDS011;46902;52.920;6.536;2022-07-05T04:38:46;11.48;;;6.93;;
61015;SDS011;46902;52.920;6.536;2022-07-05T04:41:11;8.75;;;6.47;;
61015;SDS011;46902;52.920;6.536;2022-07-05T04:43:37;7.07;;;5.18;;
61015;SDS011;46902;52.920;6.536;2022-07-05T04:46:03;11.98;;;6.82;;
61015;SDS011;46902;52.920;6.536;2022-07-05T04:48:28;8.73;;;5.63;;
61015;SDS011;46902;52.920;6.536;2022-07-05T04:50:54;7.07;;;5.95;;
61015;SDS011;46902;52.920;6.536;2022-07-05T04:53:19;6.57;;;5.97;;
61015;SDS011;46902;52.920;6.536;2022-07-05T04:55:45;6.93;;;6.13;;
61015;SDS011;46902;52.920;6.536;2022-07-05T04:58:10;8.48;;;6.18;;
61015;SDS011;46902;52.920;6.536;2022-07-05T05:00:36;7.22;;;6.07;;
61015;SDS011;46902;52.920;6.536;2022-07-05T05:03:02;7.32;;;6.57;;
61015;SDS011;46902;52.920;6.536;2022-07-05T05:05:27;8.70;;;6.00;;
61015;SDS011;46902;52.920;6.536;2022-07-05T05:07:53;7.78;;;5.65;;
61015;SDS011;46902;52.920;6.536;2022-07-05T05:10:19;8.82;;;5.65;;
61015;SDS011;46902;52.920;6.536;2022-07-05T05:12:44;8.70;;;6.93;;
61015;SDS011;46902;52.920;6.536;2022-07-05T05:15:10;10.30;;;7.05;;
61015;SDS011;46902;52.920;6.536;2022-07-05T05:20:03;9.60;;;7.28;;
61015;SDS011;46902;52.920;6.536;2022-07-05T05:22:30;7.88;;;6.68;;
61015;SDS011;46902;52.920;6.536;2022-07-05T05:24:56;9.15;;;7.65;;
61015;SDS011;46902;52.920;6.536;2022-07-05T05:27:21;7.50;;;6.78;;
61015;SDS011;46902;52.920;6.536;2022-07-05T05:29:47;7.95;;;6.25;;
61015;SDS011;46902;52.920;6.536;2022-07-05T05:32:12;8.93;;;6.35;;
61015;SDS011;46902;52.920;6.536;2022-07-05T05:34:38;7.15;;;6.45;;
61015;SDS011;46902;52.920;6.536;2022-07-05T05:37:04;8.82;;;6.43;;
61015;SDS011;46902;52.920;6.536;2022-07-05T05:39:29;7.65;;;6.78;;
61015;SDS011;46902;52.920;6.536;2022-07-05T05:41:55;9.25;;;6.40;;
61015;SDS011;46902;52.920;6.536;2022-07-05T05:44:20;12.75;;;6.85;;
61015;SDS011;46902;52.920;6.536;2022-07-05T05:46:46;8.32;;;6.32;;
61015;SDS011;46902;52.920;6.536;2022-07-05T05:49:11;8.23;;;5.70;;
61015;SDS011;46902;52.920;6.536;2022-07-05T05:51:37;8.65;;;5.15;;
61015;SDS011;46902;52.920;6.536;2022-07-05T05:54:03;8.10;;;5.45;;
61015;SDS011;46902;52.920;6.536;2022-07-05T05:56:29;8.73;;;5.72;;
61015;SDS011;46902;52.920;6.536;2022-07-05T05:58:54;6.65;;;5.07;;
61015;SDS011;46902;52.920;6.536;2022-07-05T06:01:20;8.60;;;4.55;;
61015;SDS011;46902;52.920;6.536;2022-07-05T06:03:45;7.55;;;4.50;;
61015;SDS011;46902;52.920;6.536;2022-07-05T06:06:11;6.57;;;4.25;;
61015;SDS011;46902;52.920;6.536;2022-07-05T06:08:36;6.25;;;4.32;;
61015;SDS011;46902;52.920;6.536;2022-07-05T06:11:02;8.95;;;3.85;;
61015;SDS011;46902;52.920;6.536;2022-07-05T06:13:29;6.32;;;4.22;;
61015;SDS011;46902;52.920;6.536;2022-07-05T06:15:55;6.25;;;3.80;;
61015;SDS011;46902;52.920;6.536;2022-07-05T06:18:20;6.75;;;2.97;;
61015;SDS011;46902;52.920;6.536;2022-07-05T06:20:47;4.60;;;2.80;;
61015;SDS011;46902;52.920;6.536;2022-07-05T06:23:12;5.43;;;2.85;;
61015;SDS011;46902;52.920;6.536;2022-07-05T06:25:38;4.80;;;2.58;;
61015;SDS011;46902;52.920;6.536;2022-07-05T06:28:05;6.10;;;2.40;;
61015;SDS011;46902;52.920;6.536;2022-07-05T06:30:33;8.05;;;1.90;;
61015;SDS011;46902;52.920;6.536;2022-07-05T06:33:00;5.93;;;1.70;;
61015;SDS011;46902;52.920;6.536;2022-07-05T06:35:26;3.88;;;1.40;;
61015;SDS011;46902;52.920;6.536;2022-07-05T06:37:54;4.55;;;1.13;;
61015;SDS011;46902;52.920;6.536;2022-07-05T06:40:27;2.92;;;1.27;;
61015;SDS011;46902;52.920;6.536;2022-07-05T06:42:55;4.55;;;1.08;;
61015;SDS011;46902;52.920;6.536;2022-07-05T06:45:22;5.07;;;1.00;;
61015;SDS011;46902;52.920;6.536;2022-07-05T06:47:55;6.85;;;1.02;;
61015;SDS011;46902;52.920;6.536;2022-07-05T06:50:22;4.43;;;1.00;;
61015;SDS011;46902;52.920;6.536;2022-07-05T06:52:47;4.05;;;0.70;;
61015;SDS011;46902;52.920;6.536;2022-07-05T06:55:13;3.60;;;0.70;;
61015;SDS011;46902;52.920;6.536;2022-07-05T06:57:39;5.80;;;1.15;;
61015;SDS011;46902;52.920;6.536;2022-07-05T07:00:04;3.65;;;0.90;;
61015;SDS011;46902;52.920;6.536;2022-07-05T07:02:30;2.55;;;0.65;;
61015;SDS011;46902;52.920;6.536;2022-07-05T07:04:56;5.85;;;0.98;;
61015;SDS011;46902;52.920;6.536;2022-07-05T07:07:22;4.47;;;1.00;;
61015;SDS011;46902;52.920;6.536;2022-07-05T07:10:06;4.57;;;0.90;;
61015;SDS011;46902;52.920;6.536;2022-07-05T07:12:33;4.63;;;0.60;;
61015;SDS011;46902;52.920;6.536;2022-07-05T07:14:58;4.80;;;0.88;;
61015;SDS011;46902;52.920;6.536;2022-07-05T07:17:24;3.10;;;0.60;;
61015;SDS011;46902;52.920;6.536;2022-07-05T07:19:50;2.85;;;0.70;;
61015;SDS011;46902;52.920;6.536;2022-07-05T07:22:16;4.75;;;0.60;;
61015;SDS011;46902;52.920;6.536;2022-07-05T07:24:41;3.55;;;1.02;;
61015;SDS011;46902;52.920;6.536;2022-07-05T07:27:07;4.57;;;1.20;;
61015;SDS011;46902;52.920;6.536;2022-07-05T07:29:36;7.70;;;0.80;;
61015;SDS011;46902;52.920;6.536;2022-07-05T07:32:04;5.95;;;0.90;;
61015;SDS011;46902;52.920;6.536;2022-07-05T07:34:31;9.15;;;1.85;;
61015;SDS011;46902;52.920;6.536;2022-07-05T07:36:57;2.63;;;0.68;;
61015;SDS011;46902;52.920;6.536;2022-07-05T07:39:23;2.70;;;0.70;;
61015;SDS011;46902;52.920;6.536;2022-07-05T07:41:49;4.38;;;0.68;;
61015;SDS011;46902;52.920;6.536;2022-07-05T07:44:15;4.68;;;0.90;;
61015;SDS011;46902;52.920;6.536;2022-07-05T07:46:41;3.90;;;0.60;;
61015;SDS011;46902;52.920;6.536;2022-07-05T07:49:07;4.38;;;0.70;;
61015;SDS011;46902;52.920;6.536;2022-07-05T07:51:34;2.53;;;0.60;;
61015;SDS011;46902;52.920;6.536;2022-07-05T07:53:59;4.15;;;0.73;;
61015;SDS011;46902;52.920;6.536;2022-07-05T07:56:25;3.63;;;0.68;;
61015;SDS011;46902;52.920;6.536;2022-07-05T07:58:51;4.30;;;0.50;;
61015;SDS011;46902;52.920;6.536;2022-07-05T08:01:17;4.80;;;0.80;;
61015;SDS011;46902;52.920;6.536;2022-07-05T08:03:43;3.28;;;0.70;;
61015;SDS011;46902;52.920;6.536;2022-07-05T08:06:10;6.95;;;0.80;;
61015;SDS011;46902;52.920;6.536;2022-07-05T08:08:37;12.45;;;1.08;;
61015;SDS011;46902;52.920;6.536;2022-07-05T08:11:03;4.03;;;0.50;;
61015;SDS011;46902;52.920;6.536;2022-07-05T08:13:29;6.88;;;0.68;;
61015;SDS011;46902;52.920;6.536;2022-07-05T08:15:55;2.60;;;0.65;;
61015;SDS011;46902;52.920;6.536;2022-07-05T08:18:21;1.95;;;0.60;;
61015;SDS011;46902;52.920;6.536;2022-07-05T08:21:05;2.35;;;0.70;;
61015;SDS011;46902;52.920;6.536;2022-07-05T08:23:49;3.35;;;0.50;;
61015;SDS011;46902;52.920;6.536;2022-07-05T08:26:15;1.95;;;0.73;;
61015;SDS011;46902;52.920;6.536;2022-07-05T08:28:40;5.93;;;0.80;;
61015;SDS011;46902;52.920;6.536;2022-07-05T08:31:06;6.13;;;0.85;;
61015;SDS011;46902;52.920;6.536;2022-07-05T08:33:31;3.40;;;0.70;;
61015;SDS011;46902;52.920;6.536;2022-07-05T08:35:57;2.85;;;0.80;;
61015;SDS011;46902;52.920;6.536;2022-07-05T08:38:23;5.68;;;0.90;;
61015;SDS011;46902;52.920;6.536;2022-07-05T08:40:49;2.72;;;0.60;;
61015;SDS011;46902;52.920;6.536;2022-07-05T08:43:17;2.90;;;0.70;;
61015;SDS011;46902;52.920;6.536;2022-07-05T08:45:43;3.60;;;0.77;;
61015;SDS011;46902;52.920;6.536;2022-07-05T08:48:10;5.43;;;0.70;;
61015;SDS011;46902;52.920;6.536;2022-07-05T08:50:42;4.85;;;0.75;;
61015;SDS011;46902;52.920;6.536;2022-07-05T08:53:09;3.35;;;0.63;;
61015;SDS011;46902;52.920;6.536;2022-07-05T08:55:35;4.05;;;0.60;;
61015;SDS011;46902;52.920;6.536;2022-07-05T08:58:01;2.85;;;0.60;;
61015;SDS011;46902;52.920;6.536;2022-07-05T09:00:27;1.75;;;0.60;;
61015;SDS011;46902;52.920;6.536;2022-07-05T09:02:53;3.15;;;0.90;;
61015;SDS011;46902;52.920;6.536;2022-07-05T09:05:20;5.07;;;1.08;;
61015;SDS011;46902;52.920;6.536;2022-07-05T09:08:00;5.30;;;0.65;;
61015;SDS011;46902;52.920;6.536;2022-07-05T09:10:27;4.03;;;1.02;;
61015;SDS011;46902;52.920;6.536;2022-07-05T09:12:54;2.30;;;0.57;;
61015;SDS011;46902;52.920;6.536;2022-07-05T09:15:20;5.18;;;0.75;;
61015;SDS011;46902;52.920;6.536;2022-07-05T09:17:46;5.65;;;0.98;;
61015;SDS011;46902;52.920;6.536;2022-07-05T09:20:13;3.92;;;0.90;;
61015;SDS011;46902;52.920;6.536;2022-07-05T09:22:43;2.78;;;0.75;;
61015;SDS011;46902;52.920;6.536;2022-07-05T09:25:15;2.60;;;0.55;;
61015;SDS011;46902;52.920;6.536;2022-07-05T09:30:26;3.58;;;0.73;;
61015;SDS011;46902;52.920;6.536;2022-07-05T09:33:06;5.75;;;1.42;;
61015;SDS011;46902;52.920;6.536;2022-07-05T09:35:34;5.57;;;1.08;;
61015;SDS011;46902;52.920;6.536;2022-07-05T09:38:28;4.32;;;0.93;;
61015;SDS011;46902;52.920;6.536;2022-07-05T09:40:54;4.47;;;0.60;;
61015;SDS011;46902;52.920;6.536;2022-07-05T09:43:21;5.88;;;1.00;;
61015;SDS011;46902;52.920;6.536;2022-07-05T09:46:29;4.72;;;0.70;;
61015;SDS011;46902;52.920;6.536;2022-07-05T09:49:32;8.98;;;0.95;;
61015;SDS011;46902;52.920;6.536;2022-07-05T09:52:36;5.30;;;0.80;;
61015;SDS011;46902;52.920;6.536;2022-07-05T09:59:11;3.90;;;0.73;;
61015;SDS011;46902;52.920;6.536;2022-07-05T10:11:52;5.55;;;0.88;;
61015;SDS011;46902;52.920;6.536;2022-07-05T10:18:20;3.53;;;0.70;;
61015;SDS011;46902;52.920;6.536;2022-07-05T10:20:47;8.23;;;0.98;;
61015;SDS011;46902;52.920;6.536;2022-07-05T10:23:17;5.38;;;0.60;;
61015;SDS011;46902;52.920;6.536;2022-07-05T10:25:47;3.83;;;0.75;;
61015;SDS011;46902;52.920;6.536;2022-07-05T10:28:17;3.53;;;0.88;;
61015;SDS011;46902;52.920;6.536;2022-07-05T10:30:45;7.53;;;0.75;;
61015;SDS011;46902;52.920;6.536;2022-07-05T10:33:11;3.70;;;0.60;;
61015;SDS011;46902;52.920;6.536;2022-07-05T10:35:44;2.55;;;0.60;;
61015;SDS011;46902;52.920;6.536;2022-07-05T10:38:10;3.30;;;0.63;;
61015;SDS011;46902;52.920;6.536;2022-07-05T10:40:37;5.45;;;0.93;;
61015;SDS011;46902;52.920;6.536;2022-07-05T10:43:05;6.07;;;1.02;;
61015;SDS011;46902;52.920;6.536;2022-07-05T10:45:39;7.22;;;0.65;;
61015;SDS011;46902;52.920;6.536;2022-07-05T10:48:12;6.18;;;1.02;;
61015;SDS011;46902;52.920;6.536;2022-07-05T10:53:24;3.05;;;0.80;;
61015;SDS011;46902;52.920;6.536;2022-07-05T10:55:59;3.60;;;0.77;;
61015;SDS011;46902;52.920;6.536;2022-07-05T10:58:29;3.22;;;0.80;;
61015;SDS011;46902;52.920;6.536;2022-07-05T11:03:38;5.55;;;1.00;;
61015;SDS011;46902;52.920;6.536;2022-07-05T11:06:05;6.45;;;0.70;;
61015;SDS011;46902;52.920;6.536;2022-07-05T11:09:15;3.40;;;0.70;;
61015;SDS011;46902;52.920;6.536;2022-07-05T11:11:25;4.57;;;0.98;;
61015;SDS011;46902;52.920;6.536;2022-07-05T11:13:52;5.43;;;0.80;;
61015;SDS011;46902;52.920;6.536;2022-07-05T11:16:24;3.58;;;0.73;;
61015;SDS011;46902;52.920;6.536;2022-07-05T11:18:53;3.40;;;0.93;;
61015;SDS011;46902;52.920;6.536;2022-07-05T11:24:31;4.05;;;0.80;;
61015;SDS011;46902;52.920;6.536;2022-07-05T11:26:58;4.20;;;0.68;;
61015;SDS011;46902;52.920;6.536;2022-07-05T11:32:09;3.30;;;0.75;;
61015;SDS011;46902;52.920;6.536;2022-07-05T11:34:39;5.93;;;0.80;;
61015;SDS011;46902;52.920;6.536;2022-07-05T11:39:41;5.13;;;1.15;;
61015;SDS011;46902;52.920;6.536;2022-07-05T11:42:11;6.20;;;0.68;;
61015;SDS011;46902;52.920;6.536;2022-07-05T11:44:46;3.47;;;0.90;;
61015;SDS011;46902;52.920;6.536;2022-07-05T11:47:15;3.67;;;0.50;;
61015;SDS011;46902;52.920;6.536;2022-07-05T11:49:52;4.03;;;0.68;;
61015;SDS011;46902;52.920;6.536;2022-07-05T11:52:24;4.47;;;0.73;;
61015;SDS011;46902;52.920;6.536;2022-07-05T11:54:53;8.43;;;0.75;;
61015;SDS011;46902;52.920;6.536;2022-07-05T11:57:19;1.33;;;0.50;;
61015;SDS011;46902;52.920;6.536;2022-07-05T11:59:46;3.03;;;0.60;;
61015;SDS011;46902;52.920;6.536;2022-07-05T12:02:12;3.55;;;0.70;;
61015;SDS011;46902;52.920;6.536;2022-07-05T12:04:38;2.65;;;0.38;;
61015;SDS011;46902;52.920;6.536;2022-07-05T12:07:03;6.20;;;0.60;;
61015;SDS011;46902;52.920;6.536;2022-07-05T12:09:30;4.03;;;0.50;;
61015;SDS011;46902;52.920;6.536;2022-07-05T12:12:23;2.20;;;0.50;;
61015;SDS011;46902;52.920;6.536;2022-07-05T12:15:28;2.75;;;0.70;;
61015;SDS011;46902;52.920;6.536;2022-07-05T12:17:53;3.42;;;0.50;;
61015;SDS011;46902;52.920;6.536;2022-07-05T12:20:20;2.10;;;0.38;;
61015;SDS011;46902;52.920;6.536;2022-07-05T12:22:48;3.05;;;0.52;;
61015;SDS011;46902;52.920;6.536;2022-07-05T12:25:14;5.30;;;0.45;;
61015;SDS011;46902;52.920;6.536;2022-07-05T12:27:42;2.25;;;0.35;;
61015;SDS011;46902;52.920;6.536;2022-07-05T12:30:09;4.40;;;0.50;;
61015;SDS011;46902;52.920;6.536;2022-07-05T12:33:19;4.05;;;0.60;;
61015;SDS011;46902;52.920;6.536;2022-07-05T12:35:30;2.38;;;0.60;;
61015;SDS011;46902;52.920;6.536;2022-07-05T12:40:38;3.72;;;0.80;;
61015;SDS011;46902;52.920;6.536;2022-07-05T12:43:05;6.10;;;1.00;;
61015;SDS011;46902;52.920;6.536;2022-07-05T12:45:35;6.07;;;0.80;;
61015;SDS011;46902;52.920;6.536;2022-07-05T12:48:05;4.22;;;0.77;;
61015;SDS011;46902;52.920;6.536;2022-07-05T12:50:48;3.95;;;0.80;;
61015;SDS011;46902;52.920;6.536;2022-07-05T12:53:15;3.80;;;0.60;;
61015;SDS011;46902;52.920;6.536;2022-07-05T12:56:01;5.05;;;0.98;;
61015;SDS011;46902;52.920;6.536;2022-07-05T12:58:53;5.18;;;0.60;;
61015;SDS011;46902;52.920;6.536;2022-07-05T13:01:28;3.20;;;0.70;;
61015;SDS011;46902;52.920;6.536;2022-07-05T13:03:55;4.45;;;0.63;;
61015;SDS011;46902;52.920;6.536;2022-07-05T13:09:16;3.90;;;0.80;;
61015;SDS011;46902;52.920;6.536;2022-07-05T13:14:37;3.00;;;0.60;;
61015;SDS011;46902;52.920;6.536;2022-07-05T13:17:08;2.58;;;0.40;;
61015;SDS011;46902;52.920;6.536;2022-07-05T13:19:35;4.60;;;0.63;;
61015;SDS011;46902;52.920;6.536;2022-07-05T13:22:01;2.22;;;0.50;;
61015;SDS011;46902;52.920;6.536;2022-07-05T13:24:28;2.63;;;0.70;;
61015;SDS011;46902;52.920;6.536;2022-07-05T13:26:54;2.60;;;0.65;;
61015;SDS011;46902;52.920;6.536;2022-07-05T13:29:20;5.25;;;0.88;;
61015;SDS011;46902;52.920;6.536;2022-07-05T13:31:46;4.38;;;0.63;;
61015;SDS011;46902;52.920;6.536;2022-07-05T13:34:12;3.20;;;0.55;;
61015;SDS011;46902;52.920;6.536;2022-07-05T13:36:37;3.53;;;0.45;;
61015;SDS011;46902;52.920;6.536;2022-07-05T13:39:03;3.10;;;0.50;;
61015;SDS011;46902;52.920;6.536;2022-07-05T13:41:28;3.47;;;0.50;;
61015;SDS011;46902;52.920;6.536;2022-07-05T13:43:55;3.72;;;0.50;;
61015;SDS011;46902;52.920;6.536;2022-07-05T13:46:20;1.67;;;0.50;;
61015;SDS011;46902;52.920;6.536;2022-07-05T13:48:46;5.10;;;0.77;;
61015;SDS011;46902;52.920;6.536;2022-07-05T13:51:11;1.92;;;0.50;;
61015;SDS011;46902;52.920;6.536;2022-07-05T13:53:37;1.90;;;0.40;;
61015;SDS011;46902;52.920;6.536;2022-07-05T13:56:03;4.40;;;0.70;;
61015;SDS011;46902;52.920;6.536;2022-07-05T13:58:30;2.40;;;0.47;;
61015;SDS011;46902;52.920;6.536;2022-07-05T14:00:56;4.15;;;0.73;;
61015;SDS011;46902;52.920;6.536;2022-07-05T14:03:22;2.80;;;0.82;;
61015;SDS011;46902;52.920;6.536;2022-07-05T14:05:47;3.42;;;0.93;;
61015;SDS011;46902;52.920;6.536;2022-07-05T14:08:14;3.83;;;0.70;;
61015;SDS011;46902;52.920;6.536;2022-07-05T14:10:46;2.80;;;0.43;;
61015;SDS011;46902;52.920;6.536;2022-07-05T14:15:48;2.38;;;0.50;;
61015;SDS011;46902;52.920;6.536;2022-07-05T14:18:15;4.32;;;0.63;;
61015;SDS011;46902;52.920;6.536;2022-07-05T14:20:42;1.55;;;0.50;;
61015;SDS011;46902;52.920;6.536;2022-07-05T14:23:08;4.88;;;0.70;;
61015;SDS011;46902;52.920;6.536;2022-07-05T14:25:35;2.42;;;0.50;;
61015;SDS011;46902;52.920;6.536;2022-07-05T14:28:00;2.13;;;0.50;;
61015;SDS011;46902;52.920;6.536;2022-07-05T14:30:27;2.75;;;0.50;;
61015;SDS011;46902;52.920;6.536;2022-07-05T14:32:53;2.72;;;0.90;;
61015;SDS011;46902;52.920;6.536;2022-07-05T14:35:19;3.80;;;0.60;;
61015;SDS011;46902;52.920;6.536;2022-07-05T14:37:45;4.68;;;0.75;;
61015;SDS011;46902;52.920;6.536;2022-07-05T14:40:11;2.67;;;0.50;;
61015;SDS011;46902;52.920;6.536;2022-07-05T14:42:37;4.00;;;1.00;;
61015;SDS011;46902;52.920;6.536;2022-07-05T14:45:03;5.47;;;0.93;;
61015;SDS011;46902;52.920;6.536;2022-07-05T14:47:29;3.28;;;0.90;;
61015;SDS011;46902;52.920;6.536;2022-07-05T14:49:54;2.35;;;0.60;;
61015;SDS011;46902;52.920;6.536;2022-07-05T14:52:20;3.78;;;0.85;;
61015;SDS011;46902;52.920;6.536;2022-07-05T14:54:46;3.50;;;0.68;;
61015;SDS011;46902;52.920;6.536;2022-07-05T14:57:12;3.60;;;0.88;;
61015;SDS011;46902;52.920;6.536;2022-07-05T14:59:38;3.08;;;0.55;;
61015;SDS011;46902;52.920;6.536;2022-07-05T15:02:04;3.78;;;0.60;;
61015;SDS011;46902;52.920;6.536;2022-07-05T15:04:31;3.03;;;0.70;;
61015;SDS011;46902;52.920;6.536;2022-07-05T15:06:57;3.13;;;0.73;;
61015;SDS011;46902;52.920;6.536;2022-07-05T15:09:22;3.50;;;0.63;;
61015;SDS011;46902;52.920;6.536;2022-07-05T15:11:48;5.75;;;0.80;;
61015;SDS011;46902;52.920;6.536;2022-07-05T15:14:17;2.65;;;0.50;;
61015;SDS011;46902;52.920;6.536;2022-07-05T15:16:43;3.30;;;0.60;;
61015;SDS011;46902;52.920;6.536;2022-07-05T15:19:08;4.63;;;0.90;;
61015;SDS011;46902;52.920;6.536;2022-07-05T15:21:34;3.78;;;0.60;;
61015;SDS011;46902;52.920;6.536;2022-07-05T15:23:59;3.42;;;0.65;;
61015;SDS011;46902;52.920;6.536;2022-07-05T15:26:26;1.20;;;0.30;;
61015;SDS011;46902;52.920;6.536;2022-07-05T15:28:56;3.67;;;0.70;;
61015;SDS011;46902;52.920;6.536;2022-07-05T15:31:31;1.92;;;0.50;;
61015;SDS011;46902;52.920;6.536;2022-07-05T15:33:58;4.80;;;0.70;;
61015;SDS011;46902;52.920;6.536;2022-07-05T15:36:24;4.15;;;0.60;;
61015;SDS011;46902;52.920;6.536;2022-07-05T15:38:54;3.40;;;0.80;;